Amsterdam, New York
Current Conditions -  °F | °C
As of 2:15 AM on Saturday 29 Nov 2014 (Local Time) from KNY0 Reporting Station
Overcast Overcast  
Wind Chill: 18°   Ceiling: 12000
Heat Index: 18°   Visibility: 10mi
Dew Point: 13°   Wind: 3mph
Humidity: 81%   Direction: 270°W
Pressure: 30.21"   Gusts: NA
Location:  42.94°N, 74.19°W
Report Text: KNY0 290715Z AUTO 27003KT 10SM OVC120 M08/M10 A3021 RMK AO2 T10781105
Loading
Personal Weather Stations






























Interactive Weather Map New forecast layout! Learn more

10-Day Weather Forecast

Advertisements
Track Severe Weather on mobile